sensor_id;sensor_type;location;lat;lon;timestamp;pressure;altitude;pressure_sealevel;temperature;humidity
81125;BME280;71444;52.114;5.424;2023-07-20T00:01:08;101554.00;;;15.99;86.22
81125;BME280;71444;52.114;5.424;2023-07-20T00:03:48;101549.22;;;16.01;86.39
81125;BME280;71444;52.114;5.424;2023-07-20T00:06:35;101548.75;;;15.97;86.13
81125;BME280;71444;52.114;5.424;2023-07-20T00:09:18;101551.66;;;15.96;86.70
81125;BME280;71444;52.114;5.424;2023-07-20T00:11:59;101555.59;;;15.93;86.64
81125;BME280;71444;52.114;5.424;2023-07-20T00:14:39;101548.81;;;15.89;86.41
81125;BME280;71444;52.114;5.424;2023-07-20T00:17:19;101568.72;;;15.90;86.55
81125;BME280;71444;52.114;5.424;2023-07-20T00:19:59;101554.81;;;15.85;86.96
81125;BME280;71444;52.114;5.424;2023-07-20T00:22:38;101546.88;;;15.75;86.82
81125;BME280;71444;52.114;5.424;2023-07-20T00:25:18;101548.25;;;15.71;87.04
81125;BME280;71444;52.114;5.424;2023-07-20T00:27:58;101566.16;;;15.65;87.20
81125;BME280;71444;52.114;5.424;2023-07-20T00:30:40;101560.91;;;15.64;87.07
81125;BME280;71444;52.114;5.424;2023-07-20T00:33:19;101563.13;;;15.60;87.04
81125;BME280;71444;52.114;5.424;2023-07-20T00:36:02;101552.94;;;15.54;87.10
81125;BME280;71444;52.114;5.424;2023-07-20T00:38:42;101560.41;;;15.52;86.71
81125;BME280;71444;52.114;5.424;2023-07-20T00:41:22;101543.25;;;15.43;86.77
81125;BME280;71444;52.114;5.424;2023-07-20T00:44:04;101555.88;;;15.44;86.94
81125;BME280;71444;52.114;5.424;2023-07-20T00:46:44;101554.31;;;15.42;87.12
81125;BME280;71444;52.114;5.424;2023-07-20T00:49:24;101551.13;;;15.38;87.38
81125;BME280;71444;52.114;5.424;2023-07-20T00:52:06;101553.19;;;15.36;87.20
81125;BME280;71444;52.114;5.424;2023-07-20T00:54:49;101546.19;;;15.34;87.21
81125;BME280;71444;52.114;5.424;2023-07-20T00:57:30;101550.97;;;15.32;87.33
81125;BME280;71444;52.114;5.424;2023-07-20T01:00:12;101555.56;;;15.31;87.60
81125;BME280;71444;52.114;5.424;2023-07-20T01:02:53;101553.03;;;15.30;87.24
81125;BME280;71444;52.114;5.424;2023-07-20T01:05:42;101549.81;;;15.26;87.80
81125;BME280;71444;52.114;5.424;2023-07-20T01:09:13;101558.69;;;15.20;87.74
81125;BME280;71444;52.114;5.424;2023-07-20T01:15:23;101560.47;;;15.05;87.94
81125;BME280;71444;52.114;5.424;2023-07-20T01:18:03;101567.25;;;15.01;88.08
81125;BME280;71444;52.114;5.424;2023-07-20T01:20:42;101551.97;;;14.91;88.14
81125;BME280;71444;52.114;5.424;2023-07-20T01:23:39;101555.25;;;14.87;88.42
81125;BME280;71444;52.114;5.424;2023-07-20T01:32:44;101559.53;;;14.65;88.75
81125;BME280;71444;52.114;5.424;2023-07-20T01:35:28;101557.88;;;14.56;89.06
81125;BME280;71444;52.114;5.424;2023-07-20T01:38:11;101559.56;;;14.57;88.92
81125;BME280;71444;52.114;5.424;2023-07-20T01:40:52;101558.53;;;14.50;89.08
81125;BME280;71444;52.114;5.424;2023-07-20T01:43:32;101547.63;;;14.42;89.14
81125;BME280;71444;52.114;5.424;2023-07-20T01:46:13;101551.72;;;14.38;88.81
81125;BME280;71444;52.114;5.424;2023-07-20T01:48:53;101555.47;;;14.28;89.41
81125;BME280;71444;52.114;5.424;2023-07-20T01:51:33;101561.75;;;14.21;89.52
81125;BME280;71444;52.114;5.424;2023-07-20T01:54:13;101557.50;;;14.10;89.20
81125;BME280;71444;52.114;5.424;2023-07-20T01:56:53;101558.69;;;13.99;89.69
81125;BME280;71444;52.114;5.424;2023-07-20T01:59:33;101576.00;;;13.98;89.72
81125;BME280;71444;52.114;5.424;2023-07-20T02:02:16;101573.78;;;13.94;89.82
81125;BME280;71444;52.114;5.424;2023-07-20T02:04:56;101571.22;;;13.84;90.10
81125;BME280;71444;52.114;5.424;2023-07-20T02:07:36;101568.50;;;13.84;90.37
81125;BME280;71444;52.114;5.424;2023-07-20T02:10:16;101573.25;;;13.82;90.41
81125;BME280;71444;52.114;5.424;2023-07-20T02:12:55;101563.56;;;13.80;90.71
81125;BME280;71444;52.114;5.424;2023-07-20T02:15:35;101561.34;;;13.75;90.76
81125;BME280;71444;52.114;5.424;2023-07-20T02:18:15;101569.66;;;13.73;90.62
81125;BME280;71444;52.114;5.424;2023-07-20T02:20:55;101568.66;;;13.74;90.76
81125;BME280;71444;52.114;5.424;2023-07-20T02:23:34;101567.31;;;13.78;90.56
81125;BME280;71444;52.114;5.424;2023-07-20T02:26:14;101578.84;;;13.81;90.54
81125;BME280;71444;52.114;5.424;2023-07-20T02:28:54;101571.72;;;13.80;90.43
81125;BME280;71444;52.114;5.424;2023-07-20T02:31:34;101570.19;;;13.77;90.23
81125;BME280;71444;52.114;5.424;2023-07-20T02:34:15;101568.66;;;13.74;90.46
81125;BME280;71444;52.114;5.424;2023-07-20T02:36:55;101561.19;;;13.68;90.09
81125;BME280;71444;52.114;5.424;2023-07-20T02:39:36;101570.50;;;13.66;90.16
81125;BME280;71444;52.114;5.424;2023-07-20T02:42:16;101578.28;;;13.61;90.11
81125;BME280;71444;52.114;5.424;2023-07-20T02:44:56;101567.41;;;13.53;90.21
81125;BME280;71444;52.114;5.424;2023-07-20T02:47:39;101571.47;;;13.48;90.42
81125;BME280;71444;52.114;5.424;2023-07-20T02:50:19;101566.53;;;13.44;90.40
81125;BME280;71444;52.114;5.424;2023-07-20T02:52:58;101571.91;;;13.36;90.45
81125;BME280;71444;52.114;5.424;2023-07-20T02:55:38;101575.31;;;13.30;90.62
81125;BME280;71444;52.114;5.424;2023-07-20T02:58:18;101579.84;;;13.21;90.76
81125;BME280;71444;52.114;5.424;2023-07-20T03:00:58;101582.81;;;13.10;90.83
81125;BME280;71444;52.114;5.424;2023-07-20T03:03:37;101593.09;;;12.98;90.98
81125;BME280;71444;52.114;5.424;2023-07-20T03:06:17;101595.63;;;13.00;91.33
81125;BME280;71444;52.114;5.424;2023-07-20T03:08:57;101602.06;;;12.99;91.35
81125;BME280;71444;52.114;5.424;2023-07-20T03:11:36;101601.06;;;13.00;91.50
81125;BME280;71444;52.114;5.424;2023-07-20T03:14:16;101600.50;;;12.96;91.38
81125;BME280;71444;52.114;5.424;2023-07-20T03:16:56;101609.19;;;13.00;91.51
81125;BME280;71444;52.114;5.424;2023-07-20T03:19:38;101609.88;;;13.02;91.46
81125;BME280;71444;52.114;5.424;2023-07-20T03:22:18;101619.38;;;13.06;91.47
81125;BME280;71444;52.114;5.424;2023-07-20T03:25:03;101623.50;;;13.10;91.62
81125;BME280;71444;52.114;5.424;2023-07-20T03:27:44;101624.84;;;13.14;91.53
81125;BME280;71444;52.114;5.424;2023-07-20T03:30:23;101612.31;;;13.13;91.53
81125;BME280;71444;52.114;5.424;2023-07-20T03:33:04;101613.53;;;13.18;91.70
81125;BME280;71444;52.114;5.424;2023-07-20T03:35:46;101608.13;;;13.18;91.63
81125;BME280;71444;52.114;5.424;2023-07-20T03:38:26;101611.72;;;13.19;91.42
81125;BME280;71444;52.114;5.424;2023-07-20T03:41:06;101613.53;;;13.18;91.70
81125;BME280;71444;52.114;5.424;2023-07-20T03:43:47;101608.25;;;13.17;91.74
81125;BME280;71444;52.114;5.424;2023-07-20T03:46:27;101605.69;;;13.15;91.54
81125;BME280;71444;52.114;5.424;2023-07-20T03:49:07;101620.59;;;13.11;91.72
81125;BME280;71444;52.114;5.424;2023-07-20T03:51:47;101617.06;;;13.11;91.48
81125;BME280;71444;52.114;5.424;2023-07-20T03:54:26;101610.94;;;13.09;91.75
81125;BME280;71444;52.114;5.424;2023-07-20T03:57:06;101617.22;;;13.09;91.61
81125;BME280;71444;52.114;5.424;2023-07-20T03:59:48;101620.22;;;13.06;91.74
81125;BME280;71444;52.114;5.424;2023-07-20T04:02:27;101614.81;;;13.06;92.07
81125;BME280;71444;52.114;5.424;2023-07-20T04:05:07;101611.41;;;13.04;92.01
81125;BME280;71444;52.114;5.424;2023-07-20T04:07:47;101614.91;;;12.97;91.69
81125;BME280;71444;52.114;5.424;2023-07-20T04:10:27;101634.13;;;13.03;91.78
81125;BME280;71444;52.114;5.424;2023-07-20T04:13:07;101625.28;;;13.01;91.61
81125;BME280;71444;52.114;5.424;2023-07-20T04:15:46;101636.13;;;13.01;91.71
81125;BME280;71444;52.114;5.424;2023-07-20T04:18:26;101633.09;;;13.04;91.31
81125;BME280;71444;52.114;5.424;2023-07-20T04:21:07;101628.22;;;13.08;91.35
81125;BME280;71444;52.114;5.424;2023-07-20T04:23:47;101641.88;;;13.24;91.46
81125;BME280;71444;52.114;5.424;2023-07-20T04:26:27;101645.34;;;13.34;91.35
81125;BME280;71444;52.114;5.424;2023-07-20T04:29:07;101650.13;;;13.40;90.70
81125;BME280;71444;52.114;5.424;2023-07-20T04:31:47;101638.25;;;13.41;90.70
81125;BME280;71444;52.114;5.424;2023-07-20T04:34:27;101632.16;;;13.39;90.46
81125;BME280;71444;52.114;5.424;2023-07-20T04:37:06;101638.59;;;13.38;89.85
81125;BME280;71444;52.114;5.424;2023-07-20T04:39:46;101642.28;;;13.29;89.99
81125;BME280;71444;52.114;5.424;2023-07-20T04:42:26;101641.72;;;13.26;90.18
81125;BME280;71444;52.114;5.424;2023-07-20T04:45:06;101645.44;;;13.25;90.48
81125;BME280;71444;52.114;5.424;2023-07-20T04:47:46;101658.00;;;13.26;90.38
81125;BME280;71444;52.114;5.424;2023-07-20T04:50:26;101655.13;;;13.27;90.69
81125;BME280;71444;52.114;5.424;2023-07-20T04:53:05;101656.50;;;13.31;90.33
81125;BME280;71444;52.114;5.424;2023-07-20T04:55:49;101649.09;;;13.41;90.78
81125;BME280;71444;52.114;5.424;2023-07-20T04:58:30;101645.03;;;13.45;90.25
81125;BME280;71444;52.114;5.424;2023-07-20T05:01:09;101653.56;;;13.51;90.12
81125;BME280;71444;52.114;5.424;2023-07-20T05:03:49;101648.00;;;13.60;89.89
81125;BME280;71444;52.114;5.424;2023-07-20T05:06:31;101653.81;;;13.73;89.64
81125;BME280;71444;52.114;5.424;2023-07-20T05:09:10;101655.16;;;14.28;88.54
81125;BME280;71444;52.114;5.424;2023-07-20T05:11:50;101651.28;;;14.47;87.93
81125;BME280;71444;52.114;5.424;2023-07-20T05:14:30;101658.41;;;14.72;87.05
81125;BME280;71444;52.114;5.424;2023-07-20T05:17:11;101659.34;;;15.28;85.51
81125;BME280;71444;52.114;5.424;2023-07-20T05:19:50;101654.91;;;16.97;80.27
81125;BME280;71444;52.114;5.424;2023-07-20T05:22:30;101648.88;;;18.05;75.60
81125;BME280;71444;52.114;5.424;2023-07-20T05:25:11;101644.09;;;18.99;71.60
81125;BME280;71444;52.114;5.424;2023-07-20T05:27:58;101643.81;;;19.98;68.31
81125;BME280;71444;52.114;5.424;2023-07-20T05:30:38;101641.22;;;20.90;64.09
81125;BME280;71444;52.114;5.424;2023-07-20T05:33:22;101641.72;;;21.59;62.35
81125;BME280;71444;52.114;5.424;2023-07-20T05:36:04;101641.47;;;22.18;59.21
81125;BME280;71444;52.114;5.424;2023-07-20T05:38:43;101640.38;;;22.57;58.65
81125;BME280;71444;52.114;5.424;2023-07-20T05:41:23;101632.53;;;22.86;56.53
81125;BME280;71444;52.114;5.424;2023-07-20T05:44:03;101639.19;;;23.58;54.94
81125;BME280;71444;52.114;5.424;2023-07-20T05:46:44;101643.91;;;24.06;53.36
81125;BME280;71444;52.114;5.424;2023-07-20T05:49:24;101636.09;;;24.03;52.57
81125;BME280;71444;52.114;5.424;2023-07-20T05:52:06;101633.41;;;23.66;53.70
81125;BME280;71444;52.114;5.424;2023-07-20T05:54:46;101630.06;;;23.58;53.60
81125;BME280;71444;52.114;5.424;2023-07-20T05:57:26;101637.16;;;22.92;54.97
81125;BME280;71444;52.114;5.424;2023-07-20T06:00:06;101639.00;;;22.03;57.48
81125;BME280;71444;52.114;5.424;2023-07-20T06:02:47;101641.81;;;21.19;60.10
81125;BME280;71444;52.114;5.424;2023-07-20T06:05:33;101646.28;;;20.67;62.02
81125;BME280;71444;52.114;5.424;2023-07-20T06:08:13;101650.41;;;20.23;63.21
81125;BME280;71444;52.114;5.424;2023-07-20T06:10:53;101654.50;;;19.80;65.16
81125;BME280;71444;52.114;5.424;2023-07-20T06:13:40;101657.69;;;19.48;65.44
81125;BME280;71444;52.114;5.424;2023-07-20T06:16:21;101657.78;;;19.27;66.63
81125;BME280;71444;52.114;5.424;2023-07-20T06:19:01;101658.97;;;18.90;67.67
81125;BME280;71444;52.114;5.424;2023-07-20T06:21:41;101665.03;;;18.64;69.04
81125;BME280;71444;52.114;5.424;2023-07-20T06:24:21;101659.50;;;18.57;68.60
81125;BME280;71444;52.114;5.424;2023-07-20T06:27:00;101651.88;;;18.53;68.65
81125;BME280;71444;52.114;5.424;2023-07-20T06:29:47;101663.69;;;18.75;67.73
81125;BME280;71444;52.114;5.424;2023-07-20T06:32:26;101661.94;;;18.95;65.71
81125;BME280;71444;52.114;5.424;2023-07-20T06:35:06;101668.47;;;18.94;65.09
81125;BME280;71444;52.114;5.424;2023-07-20T06:37:49;101657.47;;;19.15;65.76
81125;BME280;71444;52.114;5.424;2023-07-20T06:40:29;101667.91;;;19.33;65.28
81125;BME280;71444;52.114;5.424;2023-07-20T06:43:09;101672.22;;;19.49;65.55
81125;BME280;71444;52.114;5.424;2023-07-20T06:45:52;101665.94;;;19.55;65.35
81125;BME280;71444;52.114;5.424;2023-07-20T06:48:32;101670.31;;;19.84;63.92
81125;BME280;71444;52.114;5.424;2023-07-20T06:51:12;101671.84;;;19.93;63.04
81125;BME280;71444;52.114;5.424;2023-07-20T06:53:52;101671.00;;;19.93;63.09
81125;BME280;71444;52.114;5.424;2023-07-20T06:56:37;101676.78;;;20.18;62.59
81125;BME280;71444;52.114;5.424;2023-07-20T06:59:22;101687.16;;;20.42;62.04
81125;BME280;71444;52.114;5.424;2023-07-20T07:02:04;101682.81;;;20.61;61.28
81125;BME280;71444;52.114;5.424;2023-07-20T07:04:44;101688.06;;;20.62;60.96
81125;BME280;71444;52.114;5.424;2023-07-20T07:07:25;101678.78;;;20.63;62.32
81125;BME280;71444;52.114;5.424;2023-07-20T07:10:06;101684.31;;;20.77;60.69
81125;BME280;71444;52.114;5.424;2023-07-20T07:12:46;101685.97;;;20.58;61.11
81125;BME280;71444;52.114;5.424;2023-07-20T07:15:26;101685.06;;;20.38;60.40
81125;BME280;71444;52.114;5.424;2023-07-20T07:18:06;101685.31;;;20.49;60.05
81125;BME280;71444;52.114;5.424;2023-07-20T07:20:57;101681.75;;;20.82;58.60
81125;BME280;71444;52.114;5.424;2023-07-20T07:23:38;101681.75;;;21.02;58.49
81125;BME280;71444;52.114;5.424;2023-07-20T07:26:18;101687.47;;;21.07;56.69
81125;BME280;71444;52.114;5.424;2023-07-20T07:28:59;101680.50;;;21.17;56.37
81125;BME280;71444;52.114;5.424;2023-07-20T07:31:39;101688.53;;;21.06;54.50
81125;BME280;71444;52.114;5.424;2023-07-20T07:34:18;101687.03;;;20.83;54.89
81125;BME280;71444;52.114;5.424;2023-07-20T07:37:06;101691.22;;;20.53;56.44
81125;BME280;71444;52.114;5.424;2023-07-20T07:39:54;101690.81;;;20.49;56.73
81125;BME280;71444;52.114;5.424;2023-07-20T07:42:37;101691.41;;;20.38;56.75
81125;BME280;71444;52.114;5.424;2023-07-20T07:45:17;101690.59;;;20.51;56.48
81125;BME280;71444;52.114;5.424;2023-07-20T07:47:57;101693.31;;;20.44;57.84
81125;BME280;71444;52.114;5.424;2023-07-20T07:50:37;101692.66;;;20.36;56.04
81125;BME280;71444;52.114;5.424;2023-07-20T07:53:18;101681.88;;;20.34;55.98
81125;BME280;71444;52.114;5.424;2023-07-20T07:56:08;101684.84;;;20.39;55.64
81125;BME280;71444;52.114;5.424;2023-07-20T07:58:58;101693.75;;;20.54;55.63
81125;BME280;71444;52.114;5.424;2023-07-20T08:01:40;101692.53;;;20.77;55.31
81125;BME280;71444;52.114;5.424;2023-07-20T08:04:24;101696.56;;;21.07;54.35
81125;BME280;71444;52.114;5.424;2023-07-20T08:07:04;101694.00;;;21.32;53.19
81125;BME280;71444;52.114;5.424;2023-07-20T08:09:44;101691.47;;;21.44;53.12
81125;BME280;71444;52.114;5.424;2023-07-20T08:12:23;101681.78;;;21.15;52.99
81125;BME280;71444;52.114;5.424;2023-07-20T08:15:12;101685.13;;;21.04;54.18
81125;BME280;71444;52.114;5.424;2023-07-20T08:17:55;101679.63;;;21.04;54.64
81125;BME280;71444;52.114;5.424;2023-07-20T08:20:35;101683.66;;;21.01;54.59
81125;BME280;71444;52.114;5.424;2023-07-20T08:23:23;101688.09;;;21.15;55.12
81125;BME280;71444;52.114;5.424;2023-07-20T08:26:12;101687.69;;;20.92;53.45
81125;BME280;71444;52.114;5.424;2023-07-20T08:28:55;101683.66;;;21.14;53.37
81125;BME280;71444;52.114;5.424;2023-07-20T08:31:35;101683.69;;;21.34;51.38
81125;BME280;71444;52.114;5.424;2023-07-20T08:34:18;101687.63;;;21.58;50.09
81125;BME280;71444;52.114;5.424;2023-07-20T08:36:58;101683.50;;;21.87;50.18
81125;BME280;71444;52.114;5.424;2023-07-20T08:39:38;101682.38;;;22.01;48.83
81125;BME280;71444;52.114;5.424;2023-07-20T08:42:20;101687.63;;;22.16;48.37
81125;BME280;71444;52.114;5.424;2023-07-20T08:45:06;101686.56;;;22.17;48.45
81125;BME280;71444;52.114;5.424;2023-07-20T08:47:48;101685.25;;;22.26;45.80
81125;BME280;71444;52.114;5.424;2023-07-20T08:50:30;101679.59;;;22.15;41.11
81125;BME280;71444;52.114;5.424;2023-07-20T08:53:10;101686.81;;;22.47;42.41
81125;BME280;71444;52.114;5.424;2023-07-20T08:55:52;101684.88;;;22.79;39.69
81125;BME280;71444;52.114;5.424;2023-07-20T08:58:36;101688.28;;;22.81;36.52
81125;BME280;71444;52.114;5.424;2023-07-20T09:01:22;101683.47;;;23.02;38.23
81125;BME280;71444;52.114;5.424;2023-07-20T09:04:02;101691.75;;;23.02;42.05
81125;BME280;71444;52.114;5.424;2023-07-20T09:06:43;101684.88;;;22.86;40.46
81125;BME280;71444;52.114;5.424;2023-07-20T09:09:26;101683.31;;;22.33;41.50
81125;BME280;71444;52.114;5.424;2023-07-20T09:12:13;101681.63;;;22.64;41.57
81125;BME280;71444;52.114;5.424;2023-07-20T09:14:57;101672.56;;;22.88;39.78
81125;BME280;71444;52.114;5.424;2023-07-20T09:17:37;101677.50;;;23.05;38.92
81125;BME280;71444;52.114;5.424;2023-07-20T09:20:19;101679.13;;;22.87;40.17
81125;BME280;71444;52.114;5.424;2023-07-20T09:22:59;101678.31;;;23.30;41.57
81125;BME280;71444;52.114;5.424;2023-07-20T09:25:44;101680.81;;;23.13;40.92
81125;BME280;71444;52.114;5.424;2023-07-20T09:28:29;101683.16;;;23.10;41.48
81125;BME280;71444;52.114;5.424;2023-07-20T09:31:16;101676.06;;;23.02;41.01
81125;BME280;71444;52.114;5.424;2023-07-20T09:33:57;101679.44;;;23.04;39.94
81125;BME280;71444;52.114;5.424;2023-07-20T09:36:37;101680.22;;;23.11;39.86
81125;BME280;71444;52.114;5.424;2023-07-20T09:39:17;101676.25;;;23.01;40.25
81125;BME280;71444;52.114;5.424;2023-07-20T09:42:00;101671.28;;;22.91;40.60
81125;BME280;71444;52.114;5.424;2023-07-20T09:44:43;101664.28;;;23.13;39.80
81125;BME280;71444;52.114;5.424;2023-07-20T09:47:24;101679.56;;;23.34;40.02
81125;BME280;71444;52.114;5.424;2023-07-20T09:50:07;101672.88;;;23.24;38.61
81125;BME280;71444;52.114;5.424;2023-07-20T09:52:50;101664.88;;;23.40;37.89
81125;BME280;71444;52.114;5.424;2023-07-20T09:55:33;101668.47;;;23.59;38.38
81125;BME280;71444;52.114;5.424;2023-07-20T09:58:15;101659.00;;;23.73;38.16
81125;BME280;71444;52.114;5.424;2023-07-20T10:00:57;101663.06;;;23.89;37.59
81125;BME280;71444;52.114;5.424;2023-07-20T10:03:53;101654.09;;;23.75;37.50
81125;BME280;71444;52.114;5.424;2023-07-20T10:06:36;101660.38;;;23.64;38.35
81125;BME280;71444;52.114;5.424;2023-07-20T10:09:22;101658.72;;;23.57;37.67
81125;BME280;71444;52.114;5.424;2023-07-20T10:12:04;101652.75;;;23.41;36.71
81125;BME280;71444;52.114;5.424;2023-07-20T10:18:29;101661.63;;;23.25;38.10
81125;BME280;71444;52.114;5.424;2023-07-20T10:21:15;101659.44;;;23.09;37.44
81125;BME280;71444;52.114;5.424;2023-07-20T10:23:59;101654.69;;;23.41;36.83
81125;BME280;71444;52.114;5.424;2023-07-20T10:26:41;101654.78;;;23.71;36.06
81125;BME280;71444;52.114;5.424;2023-07-20T10:29:26;101642.03;;;23.88;35.57
81125;BME280;71444;52.114;5.424;2023-07-20T10:32:09;101640.59;;;24.16;34.79
81125;BME280;71444;52.114;5.424;2023-07-20T10:34:53;101658.31;;;24.68;34.05
81125;BME280;71444;52.114;5.424;2023-07-20T10:37:55;101651.13;;;24.79;34.74
81125;BME280;71444;52.114;5.424;2023-07-20T10:40:42;101649.88;;;24.63;33.68
81125;BME280;71444;52.114;5.424;2023-07-20T10:43:34;101641.25;;;24.83;33.33
81125;BME280;71444;52.114;5.424;2023-07-20T10:49:24;101638.50;;;24.71;34.85
81125;BME280;71444;52.114;5.424;2023-07-20T10:52:05;101637.16;;;24.74;33.75
81125;BME280;71444;52.114;5.424;2023-07-20T10:54:49;101641.47;;;24.58;34.10
81125;BME280;71444;52.114;5.424;2023-07-20T10:57:32;101649.06;;;24.63;33.44
81125;BME280;71444;52.114;5.424;2023-07-20T11:00:13;101632.03;;;25.01;31.98
81125;BME280;71444;52.114;5.424;2023-07-20T11:02:58;101632.63;;;24.79;33.23
81125;BME280;71444;52.114;5.424;2023-07-20T11:05:43;101634.03;;;24.28;33.93
81125;BME280;71444;52.114;5.424;2023-07-20T11:08:41;101632.59;;;23.96;35.51
81125;BME280;71444;52.114;5.424;2023-07-20T11:11:24;101629.34;;;23.51;35.80
81125;BME280;71444;52.114;5.424;2023-07-20T11:14:08;101629.69;;;23.36;37.20
81125;BME280;71444;52.114;5.424;2023-07-20T11:16:50;101622.19;;;23.43;38.04
81125;BME280;71444;52.114;5.424;2023-07-20T11:19:30;101623.38;;;24.02;35.61
81125;BME280;71444;52.114;5.424;2023-07-20T11:22:10;101627.03;;;23.84;35.33
81125;BME280;71444;52.114;5.424;2023-07-20T11:24:50;101621.44;;;23.54;36.10
81125;BME280;71444;52.114;5.424;2023-07-20T11:27:45;101623.69;;;23.64;35.87
81125;BME280;71444;52.114;5.424;2023-07-20T11:30:26;101620.06;;;23.82;35.36
81125;BME280;71444;52.114;5.424;2023-07-20T11:33:08;101612.97;;;23.86;35.55
81125;BME280;71444;52.114;5.424;2023-07-20T11:35:49;101609.88;;;23.64;34.48
81125;BME280;71444;52.114;5.424;2023-07-20T11:38:32;101614.50;;;23.70;34.40
81125;BME280;71444;52.114;5.424;2023-07-20T11:41:12;101609.38;;;23.85;34.69
81125;BME280;71444;52.114;5.424;2023-07-20T11:43:41;101609.25;;;24.10;34.86
81125;BME280;71444;52.114;5.424;2023-07-20T11:46:11;101606.63;;;24.57;34.45
81125;BME280;71444;52.114;5.424;2023-07-20T11:48:58;101607.28;;;25.06;33.28
81125;BME280;71444;52.114;5.424;2023-07-20T11:51:40;101591.47;;;25.53;32.49
81125;BME280;71444;52.114;5.424;2023-07-20T11:54:24;101595.72;;;25.84;31.76
81125;BME280;71444;52.114;5.424;2023-07-20T11:57:15;101597.50;;;25.90;31.62
81125;BME280;71444;52.114;5.424;2023-07-20T12:00:06;101596.97;;;25.77;31.57
81125;BME280;71444;52.114;5.424;2023-07-20T12:02:52;101586.69;;;25.49;31.33
81125;BME280;71444;52.114;5.424;2023-07-20T12:05:33;101589.78;;;25.52;31.92
81125;BME280;71444;52.114;5.424;2023-07-20T12:08:13;101588.34;;;25.50;32.27
81125;BME280;71444;52.114;5.424;2023-07-20T12:10:55;101587.59;;;25.54;32.36
81125;BME280;71444;52.114;5.424;2023-07-20T12:13:44;101588.44;;;25.03;33.54
81125;BME280;71444;52.114;5.424;2023-07-20T12:16:28;101589.50;;;24.78;33.73
81125;BME280;71444;52.114;5.424;2023-07-20T12:19:12;101588.50;;;24.96;33.60
81125;BME280;71444;52.114;5.424;2023-07-20T12:21:57;101573.22;;;25.81;32.52
81125;BME280;71444;52.114;5.424;2023-07-20T12:24:37;101569.59;;;26.37;31.55
81125;BME280;71444;52.114;5.424;2023-07-20T12:27:17;101574.88;;;26.72;30.40
81125;BME280;71444;52.114;5.424;2023-07-20T12:29:57;101574.63;;;26.40;31.05
81125;BME280;71444;52.114;5.424;2023-07-20T12:32:37;101579.41;;;25.59;32.02
81125;BME280;71444;52.114;5.424;2023-07-20T12:35:19;101583.09;;;25.25;32.90
81125;BME280;71444;52.114;5.424;2023-07-20T12:37:59;101575.44;;;25.03;33.51
81125;BME280;71444;52.114;5.424;2023-07-20T12:40:39;101574.34;;;25.68;33.17
81125;BME280;71444;52.114;5.424;2023-07-20T12:43:19;101573.19;;;25.92;32.85
81125;BME280;71444;52.114;5.424;2023-07-20T12:45:59;101567.56;;;26.04;32.09
81125;BME280;71444;52.114;5.424;2023-07-20T12:48:48;101572.97;;;25.82;33.36
81125;BME280;71444;52.114;5.424;2023-07-20T12:51:38;101556.38;;;25.42;33.61
81125;BME280;71444;52.114;5.424;2023-07-20T12:54:18;101573.50;;;25.27;34.07
81125;BME280;71444;52.114;5.424;2023-07-20T12:56:58;101577.94;;;24.81;35.28
81125;BME280;71444;52.114;5.424;2023-07-20T12:59:46;101575.28;;;24.40;36.34
81125;BME280;71444;52.114;5.424;2023-07-20T13:02:35;101577.56;;;24.13;37.93
81125;BME280;71444;52.114;5.424;2023-07-20T13:05:25;101574.34;;;23.86;36.65
81125;BME280;71444;52.114;5.424;2023-07-20T13:08:10;101574.16;;;23.99;36.40
81125;BME280;71444;52.114;5.424;2023-07-20T13:10:50;101561.91;;;23.95;36.92
81125;BME280;71444;52.114;5.424;2023-07-20T13:13:35;101561.06;;;23.94;37.53
81125;BME280;71444;52.114;5.424;2023-07-20T13:16:14;101561.09;;;24.06;38.08
81125;BME280;71444;52.114;5.424;2023-07-20T13:19:06;101564.88;;;24.23;38.13
81125;BME280;71444;52.114;5.424;2023-07-20T13:21:51;101563.19;;;24.11;38.21
81125;BME280;71444;52.114;5.424;2023-07-20T13:24:31;101565.44;;;24.02;37.96
81125;BME280;71444;52.114;5.424;2023-07-20T13:27:10;101563.75;;;24.01;38.66
81125;BME280;71444;52.114;5.424;2023-07-20T13:30:02;101553.94;;;24.17;39.05
81125;BME280;71444;52.114;5.424;2023-07-20T13:32:46;101546.69;;;24.57;38.21
81125;BME280;71444;52.114;5.424;2023-07-20T13:35:25;101552.22;;;25.16;37.81
81125;BME280;71444;52.114;5.424;2023-07-20T13:38:05;101553.94;;;25.86;36.33
81125;BME280;71444;52.114;5.424;2023-07-20T13:40:45;101536.41;;;26.42;34.38
81125;BME280;71444;52.114;5.424;2023-07-20T13:43:25;101533.06;;;27.34;31.60
81125;BME280;71444;52.114;5.424;2023-07-20T13:46:04;101537.94;;;27.49;31.35
81125;BME280;71444;52.114;5.424;2023-07-20T13:48:44;101543.94;;;27.85;30.72
81125;BME280;71444;52.114;5.424;2023-07-20T13:51:24;101535.91;;;27.39;31.35
81125;BME280;71444;52.114;5.424;2023-07-20T13:54:04;101532.72;;;27.31;31.86
81125;BME280;71444;52.114;5.424;2023-07-20T13:56:44;101534.66;;;27.08;32.35
81125;BME280;71444;52.114;5.424;2023-07-20T13:59:23;101523.97;;;26.78;31.78
81125;BME280;71444;52.114;5.424;2023-07-20T14:02:03;101532.47;;;27.10;32.08
81125;BME280;71444;52.114;5.424;2023-07-20T14:04:43;101528.22;;;27.25;32.76
81125;BME280;71444;52.114;5.424;2023-07-20T14:07:23;101527.06;;;27.21;31.54
81125;BME280;71444;52.114;5.424;2023-07-20T14:10:03;101528.94;;;26.98;32.44
81125;BME280;71444;52.114;5.424;2023-07-20T14:12:43;101527.16;;;26.53;33.25
81125;BME280;71444;52.114;5.424;2023-07-20T14:15:34;101519.44;;;26.22;34.10
81125;BME280;71444;52.114;5.424;2023-07-20T14:18:17;101525.13;;;25.98;35.11
81125;BME280;71444;52.114;5.424;2023-07-20T14:20:57;101521.53;;;25.98;35.77
81125;BME280;71444;52.114;5.424;2023-07-20T14:23:37;101511.28;;;26.32;34.50